Bargersville, Indiana
Current Conditions -  °F | °C
As of 10:54 AM on Saturday 22 Nov 2014 (Local Time) from KIND Reporting Station
Overcast Overcast  
Wind Chill: 51°   Ceiling: 5000
Heat Index: 51°   Visibility: 10mi
Dew Point: 40°   Wind: 16mph
Humidity: 66%   Direction: 200°SSW
Pressure: 30.14"   Gusts: NA
Location:  39.52°N, 86.17°W
Report Text: KIND 221554Z 20014KT 10SM BKN050 OVC100 11/04 A3014 RMK AO2 SLP212 T01060044
Loading
Personal Weather Stations






























Interactive Weather Map New forecast layout! Learn more

10-Day Weather Forecast

Advertisements
Track Severe Weather on mobile